RJNH(METAR)
10/21 05:00
METAR RJNH 202000Z 03005KT 9999 NSC 12/09 Q1024 RMK A3025=
戻る
トップページへ戻る
IMOC Co,.Ltd.